In Rescue
 
Open Full Screen Window  High Contrast Mode
Wind Gusting 00 knots
07
July 23, 2019 1:30 AM EDT
Weather Information
Wind Direction
  360 °
Wind Speed
  07 kt (8 mph)
Wind Gust
  00 kt (0 mph)
Altimeter
30.05 in
Visibility
10 SM
Temperature
17° C
63° F
Dewpoint
11° C
52° F
Humidity
68%
Sky Condition
Scattered @ 7,000 ft
VFR

METAR KTEW 230530Z AUTO 36007KT 10SM SCT070 17/11 A3005 RMK AO2 T01670111

FAA Disclaimer: The data displayed is for advisory purposes only and is not to be used for flight planning or operations.